createdAt,value
2023-06-30T00:00:26.803Z,75.47
2023-06-30T00:01:29.866Z,75.83
2023-06-30T00:02:31.829Z,75.84
2023-06-30T00:03:33.907Z,75.70
2023-06-30T00:04:36.753Z,74.95
2023-06-30T00:05:38.716Z,75.54
2023-06-30T00:06:40.865Z,75.77
2023-06-30T00:07:44.022Z,75.77
2023-06-30T00:08:46.320Z,76.49
2023-06-30T00:09:49.646Z,76.22
2023-06-30T00:10:51.512Z,75.91
2023-06-30T00:11:55.724Z,75.43
2023-06-30T00:12:57.689Z,75.50
2023-06-30T00:13:59.509Z,75.96
2023-06-30T00:15:01.633Z,76.29
2023-06-30T00:16:03.658Z,76.62
2023-06-30T00:17:05.918Z,76.93
2023-06-30T00:18:07.916Z,77.39
2023-06-30T00:19:10.413Z,77.16
2023-06-30T00:20:13.071Z,76.66
2023-06-30T00:21:15.155Z,76.10
2023-06-30T00:22:17.992Z,75.82
2023-06-30T00:23:21.234Z,75.87
2023-06-30T00:24:23.185Z,75.80
2023-06-30T00:25:25.058Z,76.23
2023-06-30T00:26:26.917Z,75.87
2023-06-30T00:27:29.093Z,75.22
2023-06-30T00:28:31.321Z,75.57
2023-06-30T00:29:33.229Z,75.38
2023-06-30T00:30:35.092Z,75.77
2023-06-30T00:31:37.232Z,75.87
2023-06-30T00:32:39.396Z,76.16
2023-06-30T00:33:41.334Z,75.47
2023-06-30T00:34:43.188Z,74.91
2023-06-30T00:35:45.361Z,74.67
2023-06-30T00:36:47.381Z,74.89
2023-06-30T00:37:49.507Z,75.19
2023-06-30T00:38:52.799Z,75.78
2023-06-30T00:39:54.716Z,76.21
2023-06-30T00:40:56.665Z,76.02
2023-06-30T00:41:58.630Z,75.97
2023-06-30T00:43:02.014Z,76.05
2023-06-30T00:44:04.118Z,76.54
2023-06-30T00:45:06.625Z,75.75
2023-06-30T00:46:13.301Z,76.06
2023-06-30T00:47:15.275Z,75.33
2023-06-30T00:48:18.577Z,74.92
2023-06-30T00:49:20.576Z,75.60
2023-06-30T00:50:22.599Z,76.67
2023-06-30T00:51:24.485Z,76.40
2023-06-30T00:52:26.635Z,76.69
2023-06-30T00:53:28.862Z,76.99
2023-06-30T00:54:32.439Z,76.81
2023-06-30T00:55:36.016Z,76.69
2023-06-30T00:56:37.949Z,76.56
2023-06-30T00:57:39.846Z,76.87
2023-06-30T00:58:43.326Z,76.71
2023-06-30T00:59:45.256Z,76.34
2023-06-30T01:00:47.195Z,75.70
2023-06-30T01:01:54.592Z,75.66
2023-06-30T01:03:12.668Z,75.91
2023-06-30T01:04:37.250Z,76.16
2023-06-30T01:05:56.163Z,75.90
2023-06-30T01:07:18.519Z,75.52
2023-06-30T01:08:29.470Z,75.96
2023-06-30T01:09:38.378Z,76.68
2023-06-30T01:10:44.976Z,76.52
2023-06-30T01:11:49.802Z,76.78
2023-06-30T01:12:52.488Z,76.53
2023-06-30T01:13:57.006Z,76.30
2023-06-30T01:15:00.783Z,76.41
2023-06-30T01:16:05.355Z,76.34
2023-06-30T01:17:08.496Z,75.82
2023-06-30T01:18:12.844Z,75.77
2023-06-30T01:19:27.299Z,76.26
2023-06-30T01:20:33.866Z,76.29
2023-06-30T01:21:36.848Z,76.24
2023-06-30T01:22:45.825Z,75.43
2023-06-30T01:23:52.811Z,75.39
2023-06-30T01:25:00.077Z,75.95
2023-06-30T01:26:03.977Z,76.46
2023-06-30T01:27:06.515Z,76.44
2023-06-30T01:28:09.445Z,77.20
2023-06-30T01:29:11.853Z,76.99
2023-06-30T01:30:15.213Z,77.70
2023-06-30T01:31:18.464Z,78.22
2023-06-30T01:32:20.898Z,78.07
2023-06-30T01:33:23.381Z,76.91
2023-06-30T01:34:25.828Z,76.81
2023-06-30T01:35:29.129Z,77.43
2023-06-30T01:36:31.355Z,77.17
2023-06-30T01:37:34.438Z,76.49
2023-06-30T01:38:36.556Z,76.92
2023-06-30T01:39:38.458Z,77.20
2023-06-30T01:40:43.017Z,77.64
2023-06-30T01:41:46.009Z,77.97
2023-06-30T01:42:52.563Z,78.19
2023-06-30T01:43:56.743Z,77.94
2023-06-30T01:44:59.659Z,78.24
2023-06-30T01:46:01.700Z,78.13
2023-06-30T01:47:04.813Z,77.86
2023-06-30T01:48:07.321Z,77.53
2023-06-30T01:49:11.322Z,77.40
2023-06-30T01:50:15.758Z,77.49
2023-06-30T01:51:19.190Z,77.16
2023-06-30T01:52:21.453Z,76.75
2023-06-30T01:53:23.484Z,77.30
2023-06-30T01:54:25.352Z,77.14
2023-06-30T01:55:27.872Z,76.57
2023-06-30T01:56:29.801Z,76.43
2023-06-30T01:57:32.312Z,77.78
2023-06-30T01:58:34.185Z,77.56
2023-06-30T01:59:36.165Z,77.13
2023-06-30T02:00:38.058Z,77.28
2023-06-30T02:01:40.222Z,77.18
2023-06-30T02:02:42.863Z,77.31
2023-06-30T02:03:45.967Z,77.08
2023-06-30T02:04:48.020Z,76.55
2023-06-30T02:05:51.432Z,75.89
2023-06-30T02:06:53.636Z,76.26
2023-06-30T02:07:55.528Z,76.71
2023-06-30T02:08:57.668Z,76.38
2023-06-30T02:09:59.620Z,76.68
2023-06-30T02:11:01.642Z,77.05
2023-06-30T02:12:04.370Z,77.43
2023-06-30T02:13:06.627Z,77.96
2023-06-30T02:14:08.557Z,78.36
2023-06-30T02:15:10.792Z,78.71
2023-06-30T02:16:13.713Z,78.67
2023-06-30T02:17:15.667Z,78.73
2023-06-30T02:18:20.180Z,79.00
2023-06-30T02:19:24.965Z,78.71
2023-06-30T02:20:26.807Z,78.41
2023-06-30T02:21:28.735Z,78.18
2023-06-30T02:22:30.706Z,77.89
2023-06-30T02:23:33.160Z,78.02
2023-06-30T02:24:35.091Z,78.00
2023-06-30T02:25:37.057Z,78.87
2023-06-30T02:26:38.953Z,78.67
2023-06-30T02:27:40.967Z,78.49
2023-06-30T02:28:43.160Z,77.93
2023-06-30T02:29:45.067Z,77.57
2023-06-30T02:30:46.951Z,77.76
2023-06-30T02:31:48.979Z,77.68
2023-06-30T02:32:51.123Z,77.58
2023-06-30T02:33:54.459Z,77.93
2023-06-30T02:34:56.420Z,78.02
2023-06-30T02:35:58.300Z,78.17
2023-06-30T02:37:02.044Z,78.70
2023-06-30T02:38:05.050Z,78.25
2023-06-30T02:39:07.227Z,78.07
2023-06-30T02:40:10.296Z,78.24
2023-06-30T02:41:12.318Z,78.57
2023-06-30T02:42:14.310Z,78.81
2023-06-30T02:43:16.225Z,78.06
2023-06-30T02:44:18.415Z,77.77
2023-06-30T02:45:20.818Z,78.26
2023-06-30T02:46:22.762Z,78.41
2023-06-30T02:47:24.697Z,79.17
2023-06-30T02:48:26.571Z,79.20
2023-06-30T02:49:29.319Z,78.91
2023-06-30T02:50:32.908Z,78.78
2023-06-30T02:51:34.839Z,78.69
2023-06-30T02:52:36.877Z,78.15
2023-06-30T02:53:39.436Z,78.27
2023-06-30T02:54:41.775Z,78.02
2023-06-30T02:55:44.111Z,77.89
2023-06-30T02:56:46.693Z,77.55
2023-06-30T02:57:48.603Z,77.44
2023-06-30T02:58:51.544Z,77.44
2023-06-30T02:59:53.817Z,77.20
2023-06-30T03:00:57.721Z,77.73
2023-06-30T03:02:01.076Z,77.18
2023-06-30T03:03:05.720Z,76.69
2023-06-30T03:04:08.511Z,77.21
2023-06-30T03:05:11.958Z,77.08
2023-06-30T03:06:14.445Z,77.43
2023-06-30T03:07:17.773Z,77.56
2023-06-30T03:08:20.607Z,77.80
2023-06-30T03:09:23.098Z,77.87
2023-06-30T03:10:26.219Z,77.59
2023-06-30T03:11:28.377Z,77.20
2023-06-30T03:12:30.270Z,77.37
2023-06-30T03:13:32.872Z,77.03
2023-06-30T03:14:35.184Z,77.17
2023-06-30T03:15:37.382Z,77.52
2023-06-30T03:16:39.434Z,77.56
2023-06-30T03:17:42.085Z,77.15
2023-06-30T03:18:44.447Z,77.26
2023-06-30T03:19:46.384Z,77.43
2023-06-30T03:20:49.212Z,77.07
2023-06-30T03:21:51.648Z,77.05
2023-06-30T03:22:54.767Z,76.88
2023-06-30T03:23:57.702Z,77.34
2023-06-30T03:25:01.464Z,76.92
2023-06-30T03:26:03.835Z,76.44
2023-06-30T03:27:06.473Z,76.61
2023-06-30T03:28:08.537Z,76.80
2023-06-30T03:29:10.436Z,77.48
2023-06-30T03:30:12.695Z,77.55
2023-06-30T03:31:15.749Z,76.98
2023-06-30T03:32:17.658Z,76.78
2023-06-30T03:33:19.651Z,76.73
2023-06-30T03:34:21.924Z,76.55
2023-06-30T03:35:24.721Z,76.31
2023-06-30T03:36:27.196Z,76.24
2023-06-30T03:37:29.099Z,75.56
2023-06-30T03:38:32.010Z,75.86
2023-06-30T03:39:33.930Z,76.27
2023-06-30T03:40:35.935Z,76.47
2023-06-30T03:41:38.242Z,76.03
2023-06-30T03:42:41.451Z,76.12
2023-06-30T03:43:43.325Z,76.15
2023-06-30T03:44:45.206Z,76.17
2023-06-30T03:45:47.737Z,75.90
2023-06-30T03:46:50.134Z,75.65
2023-06-30T03:47:52.858Z,75.56
2023-06-30T03:48:55.048Z,75.89
2023-06-30T03:49:56.920Z,75.66
2023-06-30T03:50:58.955Z,75.99
2023-06-30T03:52:01.171Z,76.10
2023-06-30T03:53:03.086Z,76.04
2023-06-30T03:54:05.826Z,76.04
2023-06-30T03:55:09.480Z,76.36
2023-06-30T03:56:11.693Z,76.83
2023-06-30T03:57:13.954Z,76.63
2023-06-30T03:58:15.839Z,76.54
2023-06-30T03:59:18.259Z,76.09
2023-06-30T04:00:21.467Z,75.79
2023-06-30T04:01:23.658Z,75.41
2023-06-30T04:02:25.623Z,74.98
2023-06-30T04:03:28.250Z,74.67
2023-06-30T04:04:30.508Z,74.43
2023-06-30T04:05:32.558Z,74.42
2023-06-30T04:06:34.896Z,74.44
2023-06-30T04:07:36.866Z,74.52
2023-06-30T04:08:38.962Z,74.97
2023-06-30T04:09:40.768Z,75.36
2023-06-30T04:10:42.832Z,75.59
2023-06-30T04:11:44.961Z,75.58
2023-06-30T04:12:46.837Z,76.01
2023-06-30T04:13:48.729Z,75.59
2023-06-30T04:14:50.667Z,75.37
2023-06-30T04:15:52.631Z,76.18
2023-06-30T04:16:56.786Z,75.65
2023-06-30T04:17:58.973Z,75.71
2023-06-30T04:19:00.922Z,75.21
2023-06-30T04:20:04.843Z,74.79
2023-06-30T04:21:06.743Z,74.76
2023-06-30T04:22:08.876Z,74.79
2023-06-30T04:23:10.765Z,74.97
2023-06-30T04:24:12.647Z,75.17
2023-06-30T04:25:14.796Z,75.21
2023-06-30T04:26:18.216Z,75.79
2023-06-30T04:27:20.422Z,76.54
2023-06-30T04:28:22.258Z,76.40
2023-06-30T04:29:24.525Z,75.95
2023-06-30T04:30:26.504Z,75.69
2023-06-30T04:31:28.462Z,74.88
2023-06-30T04:32:30.686Z,74.53
2023-06-30T04:33:35.154Z,74.02
2023-06-30T04:34:36.996Z,73.80
2023-06-30T04:35:39.140Z,73.68
2023-06-30T04:36:41.084Z,73.29
2023-06-30T04:37:43.280Z,73.14
2023-06-30T04:38:48.212Z,74.07
2023-06-30T04:39:51.416Z,73.81
2023-06-30T04:40:53.352Z,73.27
2023-06-30T04:41:55.199Z,72.97
2023-06-30T04:42:58.103Z,73.11
2023-06-30T04:44:00.730Z,73.23
2023-06-30T04:45:02.614Z,73.60
2023-06-30T04:46:04.546Z,73.92
2023-06-30T04:47:07.558Z,73.67
2023-06-30T04:48:09.890Z,73.90
2023-06-30T04:49:11.850Z,73.98
2023-06-30T04:50:13.713Z,73.70
2023-06-30T04:51:16.481Z,73.54
2023-06-30T04:52:18.367Z,73.76
2023-06-30T04:53:20.690Z,73.69
2023-06-30T04:54:23.465Z,73.00
2023-06-30T04:55:25.368Z,72.79
2023-06-30T04:56:27.286Z,72.75
2023-06-30T04:57:29.206Z,72.82
2023-06-30T04:58:31.471Z,72.58
2023-06-30T04:59:33.403Z,72.50
2023-06-30T05:00:35.479Z,71.91
2023-06-30T05:01:37.405Z,71.59
2023-06-30T05:02:39.377Z,71.58
2023-06-30T05:03:41.580Z,71.81
2023-06-30T05:04:43.453Z,71.39
2023-06-30T05:05:45.661Z,71.02
2023-06-30T05:06:47.789Z,70.44
2023-06-30T05:07:49.626Z,70.33
2023-06-30T05:08:51.881Z,70.29
2023-06-30T05:09:53.700Z,70.02
2023-06-30T05:10:55.602Z,69.92
2023-06-30T05:11:57.501Z,70.27
2023-06-30T05:12:59.472Z,70.19
2023-06-30T05:14:02.101Z,69.89
2023-06-30T05:15:04.270Z,69.03
2023-06-30T05:16:06.231Z,68.80
2023-06-30T05:17:08.570Z,68.82
2023-06-30T05:18:10.505Z,68.01
2023-06-30T05:19:12.722Z,68.04
2023-06-30T05:20:14.602Z,68.30
2023-06-30T05:21:16.561Z,68.27
2023-06-30T05:22:18.431Z,67.58
2023-06-30T05:23:20.494Z,67.75
2023-06-30T05:24:22.665Z,66.81
2023-06-30T05:25:24.603Z,66.99
2023-06-30T05:26:26.520Z,67.02
2023-06-30T05:27:28.428Z,66.80
2023-06-30T05:28:30.380Z,67.37
2023-06-30T05:29:33.073Z,66.67
2023-06-30T05:30:35.031Z,66.27
2023-06-30T05:31:37.026Z,66.32
2023-06-30T05:32:38.897Z,65.94
2023-06-30T05:33:40.832Z,65.83
2023-06-30T05:34:43.948Z,66.52
2023-06-30T05:35:46.059Z,67.11
2023-06-30T05:36:48.095Z,66.38
2023-06-30T05:37:49.997Z,65.71
2023-06-30T05:38:51.914Z,62.64
2023-06-30T05:39:54.336Z,62.54
2023-06-30T05:40:57.145Z,63.17
2023-06-30T05:41:59.041Z,62.32
2023-06-30T05:43:00.903Z,62.79
2023-06-30T05:44:02.850Z,63.40
2023-06-30T05:45:05.471Z,63.82
2023-06-30T05:46:07.321Z,61.74
2023-06-30T05:47:09.234Z,61.90
2023-06-30T05:48:11.039Z,62.05
2023-06-30T05:49:13.522Z,62.47
2023-06-30T05:50:15.784Z,62.72
2023-06-30T05:51:17.731Z,63.21
2023-06-30T05:52:22.686Z,62.78
2023-06-30T05:53:24.561Z,62.65
2023-06-30T05:54:26.429Z,62.23
2023-06-30T05:55:28.714Z,62.15
2023-06-30T05:56:30.896Z,60.88
2023-06-30T05:57:34.385Z,60.53
2023-06-30T05:58:39.149Z,60.55
2023-06-30T05:59:40.976Z,60.61
2023-06-30T06:00:43.278Z,60.13
2023-06-30T06:01:45.463Z,59.81
2023-06-30T06:02:47.505Z,60.65
2023-06-30T06:03:50.136Z,61.64
2023-06-30T06:04:52.874Z,60.86
2023-06-30T06:05:55.126Z,60.11
2023-06-30T06:06:57.462Z,59.71
2023-06-30T06:07:59.386Z,60.51
2023-06-30T06:09:01.236Z,59.88
2023-06-30T06:10:03.153Z,60.08
2023-06-30T06:11:05.038Z,59.54
2023-06-30T06:12:07.458Z,59.35
2023-06-30T06:13:09.601Z,58.38
2023-06-30T06:14:11.661Z,57.82
2023-06-30T06:15:13.771Z,58.12
2023-06-30T06:16:16.010Z,58.57
2023-06-30T06:17:18.420Z,58.69
2023-06-30T06:18:20.311Z,58.24
2023-06-30T06:19:22.285Z,58.44
2023-06-30T06:20:24.175Z,57.47
2023-06-30T06:21:29.180Z,56.94
2023-06-30T06:22:31.288Z,57.22
2023-06-30T06:23:33.220Z,55.45
2023-06-30T06:24:35.121Z,55.97
2023-06-30T06:25:37.019Z,56.16
2023-06-30T06:26:39.166Z,56.05
2023-06-30T06:27:41.313Z,56.53
2023-06-30T06:28:43.190Z,56.60
2023-06-30T06:29:45.029Z,56.60
2023-06-30T06:30:46.998Z,56.22
2023-06-30T06:31:52.664Z,54.82
2023-06-30T06:32:54.823Z,54.76
2023-06-30T06:33:56.776Z,54.00
2023-06-30T06:34:58.612Z,54.00
2023-06-30T06:36:00.518Z,53.87
2023-06-30T06:37:02.626Z,53.91
2023-06-30T06:38:04.786Z,54.63
2023-06-30T06:39:06.616Z,54.49
2023-06-30T06:40:09.012Z,54.20
2023-06-30T06:41:10.827Z,53.79
2023-06-30T06:42:12.683Z,53.59
2023-06-30T06:43:15.356Z,51.59
2023-06-30T06:44:17.912Z,51.90
2023-06-30T06:45:19.776Z,51.71
2023-06-30T06:46:21.649Z,51.23
2023-06-30T06:48:02.306Z,50.99
2023-06-30T06:49:04.803Z,51.73
2023-06-30T06:50:06.867Z,51.85
2023-06-30T06:51:08.823Z,52.53
2023-06-30T06:52:10.682Z,52.34
2023-06-30T06:53:19.131Z,51.79
2023-06-30T06:54:21.301Z,51.79
2023-06-30T06:55:23.160Z,52.41
2023-06-30T06:56:25.012Z,51.65
2023-06-30T06:57:27.016Z,51.12
2023-06-30T06:58:31.529Z,50.38
2023-06-30T06:59:33.662Z,50.88
2023-06-30T07:00:36.922Z,50.68
2023-06-30T07:01:38.860Z,50.36
2023-06-30T07:02:40.789Z,49.45
2023-06-30T07:03:42.854Z,49.55
2023-06-30T07:04:44.989Z,50.04
2023-06-30T07:05:47.282Z,49.78
2023-06-30T07:06:49.456Z,49.63
2023-06-30T07:07:51.324Z,49.78
2023-06-30T07:08:53.327Z,49.86
2023-06-30T07:09:55.493Z,49.74
2023-06-30T07:10:57.460Z,51.15
2023-06-30T07:11:59.488Z,51.47
2023-06-30T07:13:02.489Z,50.46
2023-06-30T07:14:04.418Z,49.50
2023-06-30T07:15:07.108Z,49.86
2023-06-30T07:16:08.971Z,48.04
2023-06-30T07:17:10.906Z,48.42
2023-06-30T07:18:13.216Z,47.89
2023-06-30T07:19:15.317Z,48.06
2023-06-30T07:20:17.535Z,48.49
2023-06-30T07:21:19.823Z,49.24
2023-06-30T07:22:22.757Z,48.56
2023-06-30T07:23:26.824Z,48.51
2023-06-30T07:24:38.251Z,49.34
2023-06-30T07:25:45.910Z,47.91
2023-06-30T07:26:48.249Z,48.51
2023-06-30T07:27:55.232Z,46.47
2023-06-30T07:28:57.133Z,46.38
2023-06-30T07:29:59.009Z,46.32
2023-06-30T07:31:01.559Z,46.84
2023-06-30T07:32:03.593Z,46.86
2023-06-30T07:33:05.715Z,46.44
2023-06-30T07:34:08.268Z,47.03
2023-06-30T07:35:10.225Z,47.61
2023-06-30T07:36:12.478Z,47.79
2023-06-30T07:37:14.302Z,46.67
2023-06-30T07:38:16.198Z,45.55
2023-06-30T07:39:19.212Z,44.69
2023-06-30T07:40:23.826Z,44.38
2023-06-30T07:41:26.815Z,45.49
2023-06-30T07:42:28.777Z,43.40
2023-06-30T07:43:31.583Z,43.84
2023-06-30T07:44:33.490Z,42.62
2023-06-30T07:45:35.432Z,42.35
2023-06-30T07:46:37.714Z,42.37
2023-06-30T07:47:43.423Z,43.56
2023-06-30T07:48:45.589Z,43.65
2023-06-30T07:49:47.615Z,44.42
2023-06-30T07:50:59.589Z,44.86
2023-06-30T07:52:09.751Z,44.56
2023-06-30T07:53:11.688Z,44.70
2023-06-30T07:54:13.580Z,44.16
2023-06-30T07:55:19.689Z,43.29
2023-06-30T07:56:21.674Z,42.60
2023-06-30T07:57:27.294Z,42.60
2023-06-30T07:58:29.161Z,42.54
2023-06-30T07:59:31.054Z,42.02
2023-06-30T08:00:33.122Z,43.05
2023-06-30T08:01:35.586Z,44.75
2023-06-30T08:02:38.366Z,44.09
2023-06-30T08:03:40.583Z,42.81
2023-06-30T08:04:42.987Z,42.27
2023-06-30T08:05:45.332Z,42.09
2023-06-30T08:06:48.591Z,41.78
2023-06-30T08:07:51.690Z,40.99
2023-06-30T08:08:53.853Z,40.55
2023-06-30T08:09:55.729Z,41.12
2023-06-30T08:10:57.606Z,40.42
2023-06-30T08:11:59.904Z,41.57
2023-06-30T08:13:01.762Z,41.13
2023-06-30T08:14:05.338Z,40.56
2023-06-30T08:15:07.819Z,41.65
2023-06-30T08:16:09.870Z,41.61
2023-06-30T08:17:12.156Z,41.39
2023-06-30T08:18:31.842Z,41.15
2023-06-30T08:19:47.655Z,40.15
2023-06-30T08:20:51.245Z,40.16
2023-06-30T08:21:53.283Z,41.19
2023-06-30T08:22:55.853Z,41.61
2023-06-30T08:23:58.013Z,40.62
2023-06-30T08:24:59.861Z,40.70
2023-06-30T08:26:01.827Z,40.23
2023-06-30T08:27:03.879Z,40.96
2023-06-30T08:28:06.232Z,41.66
2023-06-30T08:29:08.074Z,41.10
2023-06-30T08:30:10.084Z,41.22
2023-06-30T08:31:12.001Z,40.84
2023-06-30T08:32:13.921Z,40.34
2023-06-30T08:33:30.728Z,41.04
2023-06-30T08:34:38.298Z,40.28
2023-06-30T08:35:40.272Z,40.22
2023-06-30T08:36:42.098Z,40.61
2023-06-30T08:37:44.167Z,40.30
2023-06-30T08:38:46.345Z,39.63
2023-06-30T08:39:48.166Z,38.95
2023-06-30T08:40:50.001Z,38.84
2023-06-30T08:41:55.273Z,38.95
2023-06-30T08:42:59.885Z,38.50
2023-06-30T08:44:02.238Z,37.96
2023-06-30T08:45:05.287Z,38.49
2023-06-30T08:46:10.042Z,38.63
2023-06-30T08:47:14.673Z,40.18
2023-06-30T08:48:20.676Z,39.15
2023-06-30T08:49:26.010Z,41.44
2023-06-30T08:50:28.090Z,39.63
2023-06-30T08:51:30.787Z,39.97
2023-06-30T08:52:32.720Z,39.06
2023-06-30T08:53:34.807Z,39.76
2023-06-30T08:54:36.976Z,39.00
2023-06-30T08:55:38.884Z,39.46
2023-06-30T08:56:43.575Z,38.44
2023-06-30T08:57:46.399Z,38.34
2023-06-30T08:58:48.260Z,38.65
2023-06-30T08:59:50.833Z,38.32
2023-06-30T09:00:53.280Z,38.53
2023-06-30T09:01:58.045Z,39.33
2023-06-30T09:03:00.362Z,38.85
2023-06-30T09:04:03.289Z,37.88
2023-06-30T09:05:06.875Z,37.08
2023-06-30T09:06:12.468Z,37.65
2023-06-30T09:07:24.529Z,39.19
2023-06-30T09:08:35.435Z,38.13
2023-06-30T09:09:43.449Z,38.38
2023-06-30T09:10:48.205Z,37.92
2023-06-30T09:11:51.254Z,37.74
2023-06-30T09:12:58.314Z,37.38
2023-06-30T09:14:03.054Z,36.67
2023-06-30T09:15:07.908Z,37.13
2023-06-30T09:16:19.184Z,37.65
2023-06-30T09:17:22.211Z,37.36
2023-06-30T09:18:24.435Z,36.99
2023-06-30T09:19:26.699Z,36.11
2023-06-30T09:20:28.877Z,36.70
2023-06-30T09:21:31.072Z,37.48
2023-06-30T09:22:52.416Z,36.97
2023-06-30T09:23:56.209Z,36.13
2023-06-30T09:24:58.068Z,34.94
2023-06-30T09:25:59.955Z,35.46
2023-06-30T09:27:02.182Z,35.37
2023-06-30T09:28:10.963Z,34.98
2023-06-30T09:29:13.837Z,34.70
2023-06-30T09:30:15.738Z,34.85
2023-06-30T09:31:17.753Z,34.50
2023-06-30T09:32:27.229Z,35.50
2023-06-30T09:33:29.700Z,34.86
2023-06-30T09:34:31.788Z,34.83
2023-06-30T09:35:40.798Z,34.95
2023-06-30T09:36:54.250Z,33.65
2023-06-30T09:37:56.368Z,34.46
2023-06-30T09:38:58.896Z,35.38
2023-06-30T09:40:00.794Z,35.39
2023-06-30T09:41:06.525Z,35.21
2023-06-30T09:42:17.183Z,35.09
2023-06-30T09:43:21.461Z,34.07
2023-06-30T09:44:24.076Z,34.01
2023-06-30T09:45:25.967Z,34.25
2023-06-30T09:46:29.251Z,35.11
2023-06-30T09:47:31.188Z,36.02
2023-06-30T09:48:37.256Z,36.68
2023-06-30T09:49:41.114Z,35.62
2023-06-30T09:50:43.612Z,34.41
2023-06-30T09:51:47.811Z,35.12
2023-06-30T09:52:50.238Z,35.49
2023-06-30T09:53:55.461Z,34.79
2023-06-30T09:54:57.375Z,34.94
2023-06-30T09:55:59.309Z,35.25
2023-06-30T09:57:02.595Z,35.75
2023-06-30T09:58:04.423Z,35.23
2023-06-30T09:59:07.101Z,35.01
2023-06-30T10:00:25.542Z,34.41
2023-06-30T10:01:35.788Z,33.74
2023-06-30T10:02:37.846Z,33.37
2023-06-30T10:03:50.228Z,33.67
2023-06-30T10:04:52.071Z,34.07
2023-06-30T10:05:54.317Z,34.26
2023-06-30T10:06:57.361Z,35.67
2023-06-30T10:08:01.608Z,35.33
2023-06-30T10:09:05.607Z,34.74
2023-06-30T10:10:13.242Z,34.78
2023-06-30T10:11:15.714Z,33.59
2023-06-30T10:12:19.679Z,34.58
2023-06-30T10:13:22.145Z,35.08
2023-06-30T10:14:32.538Z,35.59
2023-06-30T10:15:35.894Z,34.58
2023-06-30T10:16:39.815Z,34.50
2023-06-30T10:17:45.534Z,35.73
2023-06-30T10:18:50.332Z,37.25
2023-06-30T10:19:53.174Z,35.90
2023-06-30T10:20:55.146Z,36.77
2023-06-30T10:21:57.610Z,37.08
2023-06-30T10:23:01.853Z,37.03
2023-06-30T10:24:04.033Z,36.37
2023-06-30T10:25:09.360Z,35.86
2023-06-30T10:26:15.856Z,35.21
2023-06-30T10:27:19.887Z,35.92
2023-06-30T10:28:22.322Z,36.29
2023-06-30T10:29:24.372Z,36.01
2023-06-30T10:30:27.043Z,36.64
2023-06-30T10:31:29.219Z,36.35
2023-06-30T10:32:31.284Z,35.50
2023-06-30T10:33:33.677Z,37.94
2023-06-30T10:34:36.979Z,36.20
2023-06-30T10:35:39.631Z,35.88
2023-06-30T10:36:41.728Z,35.99
2023-06-30T10:37:43.805Z,36.26
2023-06-30T10:38:48.121Z,36.65
2023-06-30T10:39:50.208Z,36.00
2023-06-30T10:41:12.326Z,35.96
2023-06-30T10:42:16.867Z,34.84
2023-06-30T10:43:18.836Z,35.22
2023-06-30T10:44:21.734Z,35.06
2023-06-30T10:45:50.613Z,35.77
2023-06-30T10:46:54.939Z,37.00
2023-06-30T10:47:57.464Z,36.24
2023-06-30T10:48:59.947Z,35.99
2023-06-30T10:50:12.923Z,36.02
2023-06-30T10:51:14.851Z,34.73
2023-06-30T10:52:34.790Z,33.75
2023-06-30T10:53:36.830Z,35.59
2023-06-30T10:54:41.775Z,36.46
2023-06-30T10:55:45.633Z,36.16
2023-06-30T10:56:48.138Z,35.38
2023-06-30T10:57:51.974Z,36.08
2023-06-30T10:58:58.709Z,35.67
2023-06-30T11:00:07.111Z,35.21
2023-06-30T11:01:09.262Z,35.21
2023-06-30T11:02:11.760Z,35.12
2023-06-30T11:03:13.736Z,35.38
2023-06-30T11:04:16.088Z,35.19
2023-06-30T11:05:31.075Z,36.38
2023-06-30T11:06:37.557Z,36.46
2023-06-30T11:07:39.567Z,34.56
2023-06-30T11:09:00.965Z,34.61
2023-06-30T11:10:06.187Z,36.17
2023-06-30T11:11:09.133Z,35.39
2023-06-30T11:12:11.281Z,35.67
2023-06-30T11:13:13.819Z,35.23
2023-06-30T11:14:30.394Z,35.99
2023-06-30T11:15:47.114Z,35.92
2023-06-30T11:17:04.904Z,34.83
2023-06-30T11:18:12.443Z,35.27
2023-06-30T11:19:28.210Z,35.19
2023-06-30T11:20:31.219Z,34.78
2023-06-30T11:21:33.446Z,34.67
2023-06-30T11:22:35.352Z,33.98
2023-06-30T11:23:39.024Z,34.15
2023-06-30T11:24:41.012Z,34.79
2023-06-30T11:25:42.881Z,34.72
2023-06-30T11:26:44.882Z,34.21
2023-06-30T11:27:47.179Z,34.10
2023-06-30T11:28:49.696Z,34.34
2023-06-30T11:29:54.352Z,34.37
2023-06-30T11:31:01.088Z,33.31
2023-06-30T11:32:03.092Z,32.74
2023-06-30T11:33:06.315Z,33.10
2023-06-30T11:34:08.657Z,35.95
2023-06-30T11:35:13.591Z,35.38
2023-06-30T11:36:17.019Z,34.60
2023-06-30T11:37:18.886Z,34.13
2023-06-30T11:38:21.258Z,33.87
2023-06-30T11:39:23.424Z,34.59
2023-06-30T11:40:25.547Z,34.15
2023-06-30T11:41:34.508Z,34.42
2023-06-30T11:42:43.025Z,33.67
2023-06-30T11:43:51.544Z,32.98
2023-06-30T11:44:54.012Z,34.06
2023-06-30T11:46:01.645Z,34.23
2023-06-30T11:47:05.612Z,34.43
2023-06-30T11:48:07.667Z,34.67
2023-06-30T11:49:10.402Z,34.66
2023-06-30T11:50:12.988Z,34.30
2023-06-30T11:51:14.976Z,34.31
2023-06-30T11:52:19.937Z,35.26
2023-06-30T11:53:21.931Z,34.31
2023-06-30T11:54:34.012Z,33.70
2023-06-30T11:55:36.176Z,33.69
2023-06-30T11:56:41.300Z,33.78
2023-06-30T11:57:47.648Z,34.78
2023-06-30T11:58:51.637Z,33.46
2023-06-30T11:59:53.526Z,33.28
2023-06-30T12:00:57.546Z,32.85
2023-06-30T12:02:01.326Z,32.83
2023-06-30T12:03:03.481Z,33.39
2023-06-30T12:04:11.221Z,33.79
2023-06-30T12:05:15.512Z,33.78
2023-06-30T12:06:24.870Z,32.02
2023-06-30T12:07:27.101Z,32.32
2023-06-30T12:08:31.878Z,34.06
2023-06-30T12:09:34.663Z,33.62
2023-06-30T12:10:40.858Z,34.54
2023-06-30T12:11:46.839Z,34.03
2023-06-30T12:12:57.806Z,33.15
2023-06-30T12:14:07.844Z,32.09
2023-06-30T12:15:12.671Z,32.41
2023-06-30T12:16:14.641Z,31.74
2023-06-30T12:17:19.282Z,32.18
2023-06-30T12:18:38.848Z,32.47
2023-06-30T12:19:45.636Z,32.65
2023-06-30T12:20:47.474Z,32.65
2023-06-30T12:22:00.983Z,31.80
2023-06-30T12:23:05.117Z,31.83
2023-06-30T12:24:08.827Z,33.60
2023-06-30T12:25:16.058Z,32.39
2023-06-30T12:26:17.929Z,33.46
2023-06-30T12:27:20.276Z,33.79
2023-06-30T12:28:22.141Z,34.49
2023-06-30T12:29:24.512Z,34.10
2023-06-30T12:30:28.761Z,33.66
2023-06-30T12:31:33.958Z,33.89
2023-06-30T12:32:38.482Z,34.28
2023-06-30T12:33:40.375Z,34.29
2023-06-30T12:34:42.825Z,34.35
2023-06-30T12:35:45.899Z,33.45
2023-06-30T12:36:56.579Z,32.59
2023-06-30T12:37:59.145Z,32.54
2023-06-30T12:39:01.044Z,32.72
2023-06-30T12:40:04.710Z,32.11
2023-06-30T12:41:06.700Z,32.17
2023-06-30T12:42:08.624Z,33.50
2023-06-30T12:43:10.503Z,33.11
2023-06-30T12:44:12.593Z,33.13
2023-06-30T12:45:15.933Z,33.44
2023-06-30T12:46:17.822Z,32.00
2023-06-30T12:47:19.703Z,32.14
2023-06-30T12:48:21.651Z,31.73
2023-06-30T12:49:23.598Z,31.54
2023-06-30T12:50:25.791Z,32.35
2023-06-30T12:51:27.818Z,31.44
2023-06-30T12:52:29.674Z,31.85
2023-06-30T12:53:31.530Z,33.40
2023-06-30T12:54:33.456Z,34.27
2023-06-30T12:55:35.612Z,33.80
2023-06-30T12:56:39.317Z,33.66
2023-06-30T12:57:43.886Z,33.80
2023-06-30T12:58:45.773Z,34.90
2023-06-30T12:59:47.638Z,34.67
2023-06-30T13:00:54.639Z,33.63
2023-06-30T13:01:56.582Z,33.43
2023-06-30T13:02:58.955Z,33.27
2023-06-30T13:04:00.938Z,32.67
2023-06-30T13:05:04.937Z,32.66
2023-06-30T13:06:07.195Z,34.25
2023-06-30T13:07:09.168Z,34.18
2023-06-30T13:08:11.096Z,32.65
2023-06-30T13:09:13.069Z,32.75
2023-06-30T13:10:15.040Z,32.55
2023-06-30T13:11:17.247Z,33.40
2023-06-30T13:12:19.510Z,34.41
2023-06-30T13:13:21.470Z,34.00
2023-06-30T13:14:23.393Z,34.10
2023-06-30T13:15:25.225Z,32.67
2023-06-30T13:16:27.641Z,32.81
2023-06-30T13:17:29.605Z,33.63
2023-06-30T13:18:31.561Z,32.43
2023-06-30T13:19:33.409Z,32.94
2023-06-30T13:20:35.250Z,32.72
2023-06-30T13:21:37.510Z,33.32
2023-06-30T13:22:50.585Z,32.80
2023-06-30T13:23:58.213Z,32.98
2023-06-30T13:25:00.111Z,33.20
2023-06-30T13:26:02.014Z,33.64
2023-06-30T13:27:04.677Z,34.74
2023-06-30T13:28:06.753Z,34.51
2023-06-30T13:29:08.679Z,34.16
2023-06-30T13:30:10.712Z,34.46
2023-06-30T13:31:12.777Z,34.17
2023-06-30T13:32:15.274Z,33.79
2023-06-30T13:33:17.209Z,33.53
2023-06-30T13:34:20.152Z,33.90
2023-06-30T13:35:22.670Z,33.75
2023-06-30T13:36:26.008Z,34.79
2023-06-30T13:37:29.695Z,34.79